Time;durP1;ratioP1;P1;durP2;ratioP2;P2;SDS_P1;SDS_P2;PMS_P1;PMS_P2;Temp;Humidity;BMP_temperature;BMP_pressure;BME280_temperature;BME280_humidity;BME280_pressure;Samples;Min_cycle;Max_cycle;Signal;HPM_P1;HPM_P2
2023/04/13 00:00:29;;;;;;;3.05;1.42;;;;;;;;;;5030623;28;20025;-69
2023/04/13 00:02:54;;;;;;;4.15;2.08;;;;;;;;;;5010028;28;20471;-69
2023/04/13 00:05:20;;;;;;;1.50;1.02;;;;;;;;;;5012545;28;20028;-67
2023/04/13 00:07:45;;;;;;;1.80;1.13;;;;;;;;;;5031225;28;20021;-66
2023/04/13 00:10:14;;;;;;;1.77;0.90;;;;;;;;;;5029743;28;20120;-67
2023/04/13 00:12:41;;;;;;;4.57;1.30;;;;;;;;;;5030249;28;20044;-67
2023/04/13 00:15:07;;;;;;;3.03;1.15;;;;;;;;;;5030592;28;20022;-66
2023/04/13 00:17:32;;;;;;;2.85;1.20;;;;;;;;;;5031184;28;20023;-66
2023/04/13 00:19:58;;;;;;;1.02;0.85;;;;;;;;;;5031079;28;20091;-67
2023/04/13 00:22:29;;;;;;;2.15;1.20;;;;;;;;;;5029435;28;20471;-68
2023/04/13 00:24:54;;;;;;;2.17;1.08;;;;;;;;;;5025176;28;20026;-67
2023/04/13 00:27:20;;;;;;;4.40;1.15;;;;;;;;;;5030347;28;20033;-69
2023/04/13 00:29:46;;;;;;;1.45;0.80;;;;;;;;;;5030808;28;20105;-67
2023/04/13 00:32:11;;;;;;;3.05;0.98;;;;;;;;;;5030690;28;20063;-68
2023/04/13 00:34:37;;;;;;;5.35;1.13;;;;;;;;;;5030404;28;20101;-66
2023/04/13 00:37:02;;;;;;;1.77;1.20;;;;;;;;;;5030939;28;20021;-65
2023/04/13 00:39:29;;;;;;;2.00;1.00;;;;;;;;;;5030758;28;20017;-67
2023/04/13 00:41:57;;;;;;;1.52;0.95;;;;;;;;;;5029927;28;20021;-67
2023/04/13 00:44:22;;;;;;;1.58;0.90;;;;;;;;;;5030060;28;20485;-66
2023/04/13 00:46:49;;;;;;;5.05;1.30;;;;;;;;;;5027444;28;20022;-67
2023/04/13 00:49:15;;;;;;;5.95;1.08;;;;;;;;;;5013351;28;20113;-66
2023/04/13 00:51:43;;;;;;;3.30;1.40;;;;;;;;;;5012547;28;20068;-68
2023/04/13 00:54:09;;;;;;;4.00;1.10;;;;;;;;;;5029957;28;20027;-68
2023/04/13 00:56:36;;;;;;;2.15;1.10;;;;;;;;;;5029862;28;20113;-69
2023/04/13 00:59:02;;;;;;;2.08;1.10;;;;;;;;;;5030066;28;20028;-67
2023/04/13 01:01:29;;;;;;;2.22;1.20;;;;;;;;;;5030271;28;20419;-66
2023/04/13 01:03:54;;;;;;;1.42;0.90;;;;;;;;;;5029616;28;20435;-68
2023/04/13 01:06:26;;;;;;;2.70;1.13;;;;;;;;;;5029914;28;20075;-69
2023/04/13 01:08:54;;;;;;;1.90;1.25;;;;;;;;;;5029278;28;20150;-68
2023/04/13 01:11:48;;;;;;;4.22;1.00;;;;;;;;;;5030168;28;20029;-69
2023/04/13 01:14:20;;;;;;;1.38;0.95;;;;;;;;;;4999250;28;20035;-68
2023/04/13 01:16:49;;;;;;;3.97;1.00;;;;;;;;;;5029914;28;20028;-68
2023/04/13 01:19:21;;;;;;;4.40;0.98;;;;;;;;;;5029589;28;20025;-68
2023/04/13 01:21:47;;;;;;;3.17;1.20;;;;;;;;;;5028460;28;20025;-68
2023/04/13 01:24:29;;;;;;;2.75;1.40;;;;;;;;;;5023488;28;20410;-66
2023/04/13 01:26:56;;;;;;;9.15;1.35;;;;;;;;;;5030042;28;20048;-67
2023/04/13 01:29:22;;;;;;;2.63;1.30;;;;;;;;;;5029887;28;20205;-66
2023/04/13 01:31:48;;;;;;;1.33;0.90;;;;;;;;;;5029159;28;20209;-67
2023/04/13 01:34:13;;;;;;;2.70;1.40;;;;;;;;;;5028962;28;20025;-66
2023/04/13 01:36:39;;;;;;;4.75;1.33;;;;;;;;;;5028845;28;20544;-66
2023/04/13 01:39:04;;;;;;;1.58;1.05;;;;;;;;;;5029088;28;20136;-68
2023/04/13 01:41:29;;;;;;;3.50;1.40;;;;;;;;;;5029022;28;20024;-67
2023/04/13 01:43:55;;;;;;;2.40;1.40;;;;;;;;;;5029334;28;20025;-66
2023/04/13 01:46:24;;;;;;;3.80;1.50;;;;;;;;;;5029263;28;20370;-68
2023/04/13 01:48:49;;;;;;;;;;;;;;;;;;5016508;28;20573;-66
2023/04/13 01:51:17;;;;;;;1.70;1.02;;;;;;;;;;5027543;28;20425;-68
2023/04/13 01:53:54;;;;;;;2.97;1.30;;;;;;;;;;5029017;28;20247;-68
2023/04/13 01:56:21;;;;;;;3.05;1.02;;;;;;;;;;5028953;28;20458;-68
2023/04/13 01:58:48;;;;;;;1.60;1.13;;;;;;;;;;5029148;28;20439;-65
2023/04/13 02:01:14;;;;;;;2.45;1.08;;;;;;;;;;5029664;28;20270;-69
2023/04/13 02:03:41;;;;;;;1.88;1.05;;;;;;;;;;5028580;28;20080;-68
2023/04/13 02:06:07;;;;;;;1.95;1.20;;;;;;;;;;5029389;28;20386;-67
2023/04/13 02:08:35;;;;;;;2.10;1.40;;;;;;;;;;5029050;28;20021;-67
2023/04/13 02:11:00;;;;;;;3.63;1.55;;;;;;;;;;5029229;28;20030;-68
2023/04/13 02:13:26;;;;;;;2.15;1.20;;;;;;;;;;5029076;28;20375;-68
2023/04/13 02:15:51;;;;;;;2.97;1.33;;;;;;;;;;5029143;28;20440;-68
2023/04/13 02:18:17;;;;;;;1.95;1.13;;;;;;;;;;5028528;28;20452;-69
2023/04/13 02:20:42;;;;;;;4.65;1.35;;;;;;;;;;5028429;28;20052;-66
2023/04/13 02:23:09;;;;;;;1.70;1.10;;;;;;;;;;5022748;28;20523;-68
2023/04/13 02:25:34;;;;;;;3.28;1.48;;;;;;;;;;5028875;28;20060;-68
2023/04/13 02:28:00;;;;;;;2.17;1.25;;;;;;;;;;5028912;28;20060;-68
2023/04/13 02:30:26;;;;;;;3.95;1.55;;;;;;;;;;5028775;28;20375;-68
2023/04/13 02:32:53;;;;;;;4.53;2.03;;;;;;;;;;5028706;28;20041;-67
2023/04/13 02:35:19;;;;;;;3.65;1.20;;;;;;;;;;5028618;28;20480;-68
2023/04/13 02:37:45;;;;;;;2.15;1.38;;;;;;;;;;5029097;28;20092;-69
2023/04/13 02:40:10;;;;;;;6.03;1.38;;;;;;;;;;5028678;28;20094;-68
2023/04/13 02:42:36;;;;;;;3.05;1.33;;;;;;;;;;5028285;28;20014;-66
2023/04/13 02:45:03;;;;;;;2.45;1.30;;;;;;;;;;5028616;28;20451;-69
2023/04/13 02:47:28;;;;;;;2.13;1.10;;;;;;;;;;5026066;28;20013;-68
2023/04/13 02:49:53;;;;;;;2.10;0.90;;;;;;;;;;5019822;28;20625;-67
2023/04/13 02:52:20;;;;;;;2.10;1.10;;;;;;;;;;5054037;23;20095;-68
2023/04/13 02:54:45;;;;;;;1.50;1.00;;;;;;;;;;5048875;28;20033;-68
2023/04/13 02:57:12;;;;;;;2.30;1.25;;;;;;;;;;5050705;28;20028;-68
2023/04/13 02:59:38;;;;;;;2.78;1.23;;;;;;;;;;5050664;28;20025;-68
2023/04/13 03:02:03;;;;;;;3.25;1.20;;;;;;;;;;5050847;28;20027;-67
2023/04/13 03:04:29;;;;;;;1.65;0.98;;;;;;;;;;5050304;28;20505;-69
2023/04/13 03:06:55;;;;;;;2.50;1.40;;;;;;;;;;5050753;28;20044;-67
2023/04/13 03:09:20;;;;;;;2.72;1.17;;;;;;;;;;5050843;28;20052;-70
2023/04/13 03:11:46;;;;;;;2.63;1.23;;;;;;;;;;5064119;28;20074;-69
2023/04/13 03:14:19;;;;;;;1.88;1.30;;;;;;;;;;5057534;28;20154;-66
2023/04/13 03:16:45;;;;;;;1.75;0.98;;;;;;;;;;5056136;28;20017;-67
2023/04/13 03:19:10;;;;;;;2.53;1.20;;;;;;;;;;5050450;28;20025;-68
2023/04/13 03:21:36;;;;;;;2.70;1.05;;;;;;;;;;5041546;28;20509;-67
2023/04/13 03:24:01;;;;;;;1.65;1.00;;;;;;;;;;5044655;28;20047;-69
2023/04/13 03:26:26;;;;;;;1.30;0.80;;;;;;;;;;5050381;28;20036;-68
2023/04/13 03:28:51;;;;;;;2.90;0.90;;;;;;;;;;5050279;28;20047;-67
2023/04/13 03:31:16;;;;;;;1.77;1.08;;;;;;;;;;5050371;28;20028;-68
2023/04/13 03:33:42;;;;;;;1.45;0.90;;;;;;;;;;5049718;28;20399;-67
2023/04/13 03:36:07;;;;;;;1.38;0.80;;;;;;;;;;5063389;28;20017;-68
2023/04/13 03:38:32;;;;;;;3.03;0.85;;;;;;;;;;5057648;28;20095;-69
2023/04/13 03:40:58;;;;;;;2.50;0.90;;;;;;;;;;5055929;28;20052;-69
2023/04/13 03:43:23;;;;;;;4.22;0.82;;;;;;;;;;5049898;28;20021;-68
2023/04/13 03:45:48;;;;;;;4.90;1.10;;;;;;;;;;5049476;28;20025;-68
2023/04/13 03:48:14;;;;;;;3.42;0.90;;;;;;;;;;5036348;28;20040;-66
2023/04/13 03:50:39;;;;;;;7.95;1.00;;;;;;;;;;5050106;28;20043;-69
2023/04/13 03:53:05;;;;;;;1.15;0.82;;;;;;;;;;5062608;28;20043;-68
2023/04/13 03:55:30;;;;;;;2.55;0.63;;;;;;;;;;5049368;28;20437;-64
2023/04/13 03:57:55;;;;;;;0.93;0.70;;;;;;;;;;5035484;28;20020;-68
2023/04/13 04:00:21;;;;;;;2.30;1.10;;;;;;;;;;5050139;28;20049;-68
2023/04/13 04:02:46;;;;;;;6.82;1.20;;;;;;;;;;5055035;28;20013;-69
2023/04/13 04:05:11;;;;;;;2.15;1.00;;;;;;;;;;5049380;28;20203;-70
2023/04/13 04:07:36;;;;;;;0.82;0.60;;;;;;;;;;5063118;28;20028;-67
2023/04/13 04:10:02;;;;;;;0.98;0.80;;;;;;;;;;5062992;28;20024;-66
2023/04/13 04:12:27;;;;;;;2.00;0.75;;;;;;;;;;5049838;28;20029;-68
2023/04/13 04:14:52;;;;;;;2.58;1.20;;;;;;;;;;5049582;28;20021;-65
2023/04/13 04:17:17;;;;;;;1.67;0.85;;;;;;;;;;5063562;28;20033;-67
2023/04/13 04:19:43;;;;;;;0.75;0.70;;;;;;;;;;5055443;28;20032;-66
2023/04/13 04:22:08;;;;;;;1.05;0.80;;;;;;;;;;5049152;28;20024;-69
2023/04/13 04:24:34;;;;;;;4.70;1.10;;;;;;;;;;5062060;28;20028;-69
2023/04/13 04:27:00;;;;;;;1.80;1.02;;;;;;;;;;5037843;28;20017;-66
2023/04/13 04:29:32;;;;;;;0.82;0.80;;;;;;;;;;5056832;28;20414;-68
2023/04/13 04:31:58;;;;;;;6.63;1.00;;;;;;;;;;5036299;28;20103;-70
2023/04/13 04:34:23;;;;;;;3.03;0.90;;;;;;;;;;5048639;28;20108;-70
2023/04/13 04:36:52;;;;;;;1.38;0.90;;;;;;;;;;5049265;28;20036;-69
2023/04/13 04:39:22;;;;;;;3.83;1.00;;;;;;;;;;5049494;28;20032;-66
2023/04/13 04:41:48;;;;;;;1.45;0.90;;;;;;;;;;5048584;28;20017;-67
2023/04/13 04:44:15;;;;;;;1.92;0.75;;;;;;;;;;5050290;28;20529;-66
2023/04/13 04:46:42;;;;;;;2.38;0.80;;;;;;;;;;5052736;28;20041;-70
2023/04/13 04:49:07;;;;;;;1.70;0.73;;;;;;;;;;5034661;28;20036;-70
2023/04/13 04:51:32;;;;;;;3.53;1.15;;;;;;;;;;5056440;28;20029;-67
2023/04/13 04:54:00;;;;;;;2.20;0.95;;;;;;;;;;5037592;28;20047;-67
2023/04/13 04:56:26;;;;;;;5.80;1.27;;;;;;;;;;5060878;28;20014;-70
2023/04/13 04:58:51;;;;;;;1.63;0.80;;;;;;;;;;5063171;28;20028;-68
2023/04/13 05:01:21;;;;;;;1.83;1.02;;;;;;;;;;5048890;28;20650;-69
2023/04/13 05:03:46;;;;;;;4.25;0.90;;;;;;;;;;5047769;28;20100;-69
2023/04/13 05:06:12;;;;;;;1.90;0.98;;;;;;;;;;5038616;28;20028;-69
2023/04/13 05:08:37;;;;;;;2.65;1.10;;;;;;;;;;5054374;28;20158;-69
2023/04/13 05:11:04;;;;;;;2.88;1.00;;;;;;;;;;5048506;28;20029;-67
2023/04/13 05:13:30;;;;;;;2.53;1.05;;;;;;;;;;5047691;28;20067;-67
2023/04/13 05:15:55;;;;;;;1.48;1.00;;;;;;;;;;5048114;28;20091;-68
2023/04/13 05:18:20;;;;;;;3.22;0.85;;;;;;;;;;5048396;28;20064;-67
2023/04/13 05:20:46;;;;;;;2.78;1.30;;;;;;;;;;5052723;28;20626;-68
2023/04/13 05:23:11;;;;;;;2.53;1.30;;;;;;;;;;5054386;28;20048;-66
2023/04/13 05:25:38;;;;;;;2.65;1.15;;;;;;;;;;5047562;28;20104;-67
2023/04/13 05:28:04;;;;;;;3.33;1.42;;;;;;;;;;5061317;28;20020;-65
2023/04/13 05:30:29;;;;;;;3.92;1.40;;;;;;;;;;5047753;28;20119;-65
2023/04/13 05:32:55;;;;;;;3.13;1.25;;;;;;;;;;5047711;28;20016;-69
2023/04/13 05:35:22;;;;;;;2.10;1.10;;;;;;;;;;5047330;28;20025;-65
2023/04/13 05:37:47;;;;;;;2.95;1.40;;;;;;;;;;5043883;28;20605;-67
2023/04/13 05:40:13;;;;;;;2.42;0.98;;;;;;;;;;5054113;28;20043;-65
2023/04/13 05:42:40;;;;;;;6.35;1.02;;;;;;;;;;5062856;28;20020;-69
2023/04/13 05:45:08;;;;;;;2.00;0.88;;;;;;;;;;5047558;28;20017;-66
2023/04/13 05:47:34;;;;;;;10.23;1.10;;;;;;;;;;5033296;28;20018;-68
2023/04/13 05:49:59;;;;;;;2.67;1.10;;;;;;;;;;5036000;28;20111;-67
2023/04/13 05:52:25;;;;;;;2.10;0.98;;;;;;;;;;5047487;28;20082;-66
2023/04/13 05:54:51;;;;;;;1.98;0.90;;;;;;;;;;5047013;28;20040;-65
2023/04/13 05:57:19;;;;;;;3.22;1.23;;;;;;;;;;5047440;28;20509;-67
2023/04/13 05:59:44;;;;;;;8.63;1.85;;;;;;;;;;5055635;28;20150;-67
2023/04/13 06:02:10;;;;;;;2.75;1.10;;;;;;;;;;5054808;28;20119;-66
2023/04/13 06:04:35;;;;;;;3.40;1.02;;;;;;;;;;5057150;28;20024;-67
2023/04/13 06:07:00;;;;;;;1.50;1.10;;;;;;;;;;5046948;28;20353;-66
2023/04/13 06:09:26;;;;;;;2.55;1.20;;;;;;;;;;5048539;28;20045;-67
2023/04/13 06:11:53;;;;;;;5.15;1.13;;;;;;;;;;5035954;28;20072;-67
2023/04/13 06:14:19;;;;;;;1.77;1.02;;;;;;;;;;5048492;28;20086;-67
2023/04/13 06:16:44;;;;;;;4.68;1.35;;;;;;;;;;5039931;28;20079;-69
2023/04/13 06:19:11;;;;;;;4.65;1.40;;;;;;;;;;5048972;28;20021;-64
2023/04/13 06:21:36;;;;;;;4.93;1.92;;;;;;;;;;5053756;28;20653;-67
2023/04/13 06:24:01;;;;;;;4.88;1.17;;;;;;;;;;5042050;28;20109;-67
2023/04/13 06:26:27;;;;;;;5.20;1.30;;;;;;;;;;5060373;28;20067;-69
2023/04/13 06:28:53;;;;;;;3.45;1.13;;;;;;;;;;5048118;28;20104;-67
2023/04/13 06:31:19;;;;;;;9.85;1.50;;;;;;;;;;5049183;28;20116;-68
2023/04/13 06:33:45;;;;;;;3.22;1.13;;;;;;;;;;5051176;28;20366;-67
2023/04/13 06:36:10;;;;;;;2.60;1.10;;;;;;;;;;5051171;28;20028;-66
2023/04/13 06:38:35;;;;;;;2.40;1.15;;;;;;;;;;5051320;28;20017;-67
2023/04/13 06:41:01;;;;;;;3.85;1.35;;;;;;;;;;5049424;28;20055;-69
2023/04/13 06:43:26;;;;;;;1.55;1.00;;;;;;;;;;5050626;28;20025;-67
2023/04/13 06:46:01;;;;;;;3.90;1.20;;;;;;;;;;5027467;28;20025;-69
2023/04/13 06:48:26;;;;;;;3.40;1.30;;;;;;;;;;5050289;28;20029;-68
2023/04/13 06:50:53;;;;;;;3.55;1.13;;;;;;;;;;5050745;28;20116;-65
2023/04/13 06:53:18;;;;;;;11.82;1.48;;;;;;;;;;5050862;28;20058;-69
2023/04/13 06:55:43;;;;;;;3.92;1.55;;;;;;;;;;5050598;28;20523;-67
2023/04/13 06:58:09;;;;;;;2.30;1.00;;;;;;;;;;5050532;28;20164;-68
2023/04/13 07:00:34;;;;;;;2.42;1.15;;;;;;;;;;5032387;28;20083;-67
2023/04/13 07:03:00;;;;;;;7.93;1.50;;;;;;;;;;5050428;28;20049;-65
2023/04/13 07:05:25;;;;;;;4.20;1.20;;;;;;;;;;5049451;28;20481;-69
2023/04/13 07:07:51;;;;;;;4.35;1.63;;;;;;;;;;5040838;28;20020;-71
2023/04/13 07:10:16;;;;;;;4.82;1.27;;;;;;;;;;5055507;28;20052;-69
2023/04/13 07:12:41;;;;;;;2.03;1.00;;;;;;;;;;5050542;28;20024;-68
2023/04/13 07:15:08;;;;;;;4.45;1.30;;;;;;;;;;5052325;28;20126;-69
2023/04/13 07:17:33;;;;;;;6.15;1.30;;;;;;;;;;5065174;28;20383;-67
2023/04/13 07:19:58;;;;;;;2.00;0.90;;;;;;;;;;5055635;28;20104;-68
2023/04/13 07:22:23;;;;;;;4.07;1.17;;;;;;;;;;5041778;28;20092;-67
2023/04/13 07:24:49;;;;;;;6.47;1.30;;;;;;;;;;5039836;28;20381;-64
2023/04/13 07:27:14;;;;;;;4.50;1.33;;;;;;;;;;5032136;28;20021;-69
2023/04/13 07:29:39;;;;;;;1.27;0.85;;;;;;;;;;5050588;28;20102;-70
2023/04/13 07:32:05;;;;;;;5.07;1.08;;;;;;;;;;5049919;28;20398;-69
2023/04/13 07:34:31;;;;;;;4.30;1.20;;;;;;;;;;5059890;28;20024;-67
2023/04/13 07:36:56;;;;;;;5.03;1.25;;;;;;;;;;5055460;28;20104;-69
2023/04/13 07:39:21;;;;;;;2.00;0.85;;;;;;;;;;5042295;28;20093;-68
2023/04/13 07:41:47;;;;;;;2.38;0.88;;;;;;;;;;5053200;28;20105;-68
2023/04/13 07:44:15;;;;;;;11.48;1.10;;;;;;;;;;5056632;28;20029;-68
2023/04/13 07:46:40;;;;;;;3.87;1.00;;;;;;;;;;5052001;28;20036;-68
2023/04/13 07:49:06;;;;;;;5.03;2.42;;;;;;;;;;5052870;28;20021;-68
2023/04/13 07:51:33;;;;;;;4.03;1.15;;;;;;;;;;5059988;28;20036;-66
2023/04/13 07:53:58;;;;;;;2.53;1.20;;;;;;;;;;5048609;28;20017;-66
2023/04/13 07:56:23;;;;;;;3.40;1.42;;;;;;;;;;5048852;28;20027;-68
2023/04/13 07:58:49;;;;;;;5.82;0.88;;;;;;;;;;5049183;28;20202;-67
2023/04/13 08:01:14;;;;;;;4.88;1.00;;;;;;;;;;5050384;28;20095;-67
2023/04/13 08:03:40;;;;;;;6.88;1.20;;;;;;;;;;5061221;28;20044;-67
2023/04/13 08:06:06;;;;;;;5.75;1.00;;;;;;;;;;5056096;28;20021;-69
2023/04/13 08:08:32;;;;;;;6.30;1.45;;;;;;;;;;5069091;28;20082;-68
2023/04/13 08:10:57;;;;;;;7.05;1.40;;;;;;;;;;5056152;28;20028;-65
2023/04/13 08:13:23;;;;;;;2.40;0.77;;;;;;;;;;5062343;28;20478;-68
2023/04/13 08:15:48;;;;;;;3.05;1.13;;;;;;;;;;5049351;28;20028;-68
2023/04/13 08:18:14;;;;;;;5.25;1.15;;;;;;;;;;5056499;28;20163;-67
2023/04/13 08:20:39;;;;;;;2.33;0.82;;;;;;;;;;5053303;28;20067;-66
2023/04/13 08:23:05;;;;;;;2.40;0.88;;;;;;;;;;5050227;28;20024;-67
2023/04/13 08:25:30;;;;;;;3.53;1.45;;;;;;;;;;5049474;28;20280;-66
2023/04/13 08:27:55;;;;;;;3.97;1.00;;;;;;;;;;5048952;28;20470;-67
2023/04/13 08:30:21;;;;;;;7.68;1.08;;;;;;;;;;5049338;28;20029;-69
2023/04/13 08:32:46;;;;;;;2.25;0.90;;;;;;;;;;5044174;28;20017;-67
2023/04/13 08:35:12;;;;;;;4.93;1.00;;;;;;;;;;5062065;28;20016;-67
2023/04/13 08:37:38;;;;;;;3.55;1.23;;;;;;;;;;5045478;28;20045;-66
2023/04/13 08:40:06;;;;;;;3.70;1.10;;;;;;;;;;5042318;28;20497;-67
2023/04/13 08:42:32;;;;;;;2.58;0.90;;;;;;;;;;5042708;28;20086;-68
2023/04/13 08:45:00;;;;;;;4.80;1.20;;;;;;;;;;5048258;28;20028;-66
2023/04/13 08:47:26;;;;;;;4.57;1.50;;;;;;;;;;5049347;28;20100;-67
2023/04/13 08:49:53;;;;;;;4.03;1.17;;;;;;;;;;5058266;28;20032;-66
2023/04/13 08:52:18;;;;;;;5.15;1.33;;;;;;;;;;5072791;22;20040;-71
2023/04/13 08:54:44;;;;;;;5.45;1.58;;;;;;;;;;5068468;28;20021;-71
2023/04/13 08:57:10;;;;;;;4.80;1.10;;;;;;;;;;5070911;28;20189;-70
2023/04/13 08:59:36;;;;;;;4.45;1.20;;;;;;;;;;5070277;28;20023;-71
2023/04/13 09:02:05;;;;;;;3.95;1.30;;;;;;;;;;5067349;28;20024;-71
2023/04/13 09:04:34;;;;;;;3.60;0.93;;;;;;;;;;5049933;28;20104;-73
2023/04/13 09:06:59;;;;;;;2.10;1.10;;;;;;;;;;5050335;28;20355;-70
2023/04/13 09:09:26;;;;;;;5.55;1.23;;;;;;;;;;5050493;28;20027;-71
2023/04/13 09:11:51;;;;;;;2.25;0.88;;;;;;;;;;5050011;28;20029;-71
2023/04/13 09:14:19;;;;;;;4.65;1.40;;;;;;;;;;5050405;28;20063;-70
2023/04/13 09:16:45;;;;;;;3.83;1.25;;;;;;;;;;5050524;28;20450;-71
2023/04/13 09:19:12;;;;;;;1.77;0.90;;;;;;;;;;5051560;28;20108;-70
2023/04/13 09:21:39;;;;;;;6.30;2.35;;;;;;;;;;5059687;28;20035;-70
2023/04/13 09:24:04;;;;;;;3.13;1.40;;;;;;;;;;5059201;28;20017;-70
2023/04/13 09:26:42;;;;;;;3.35;1.15;;;;;;;;;;5050573;28;20096;-70
2023/04/13 09:29:09;;;;;;;5.45;0.95;;;;;;;;;;5049590;28;20108;-72
2023/04/13 09:31:36;;;;;;;2.00;1.00;;;;;;;;;;5049816;28;20112;-69
2023/04/13 09:34:01;;;;;;;6.78;1.20;;;;;;;;;;5049557;28;20027;-70
2023/04/13 09:36:27;;;;;;;4.03;1.30;;;;;;;;;;5049493;28;20108;-70
2023/04/13 09:38:53;;;;;;;4.18;0.77;;;;;;;;;;5061909;28;20031;-70
2023/04/13 09:41:31;;;;;;;7.10;0.90;;;;;;;;;;5051365;28;20074;-71
2023/04/13 09:43:57;;;;;;;2.53;0.93;;;;;;;;;;5069092;28;20022;-71
2023/04/13 09:46:22;;;;;;;2.28;0.88;;;;;;;;;;5050192;28;20033;-70
2023/04/13 09:49:03;;;;;;;5.13;1.45;;;;;;;;;;5049086;28;20032;-71
2023/04/13 09:51:38;;;;;;;2.72;0.85;;;;;;;;;;5049284;28;20107;-71
2023/04/13 09:54:07;;;;;;;4.07;1.05;;;;;;;;;;5029266;28;20048;-71
2023/04/13 09:56:45;;;;;;;2.13;0.82;;;;;;;;;;5029870;28;20018;-71
2023/04/13 09:59:11;;;;;;;6.95;1.33;;;;;;;;;;5011025;28;20065;-72
2023/04/13 10:01:37;;;;;;;5.35;1.00;;;;;;;;;;5030846;28;20021;-71
2023/04/13 10:04:08;;;;;;;6.63;1.10;;;;;;;;;;5028857;28;20437;-70
2023/04/13 10:06:41;;;;;;;7.47;1.02;;;;;;;;;;5029660;28;20025;-72
2023/04/13 10:09:07;;;;;;;3.42;0.93;;;;;;;;;;5011903;28;20025;-71
2023/04/13 10:11:36;;;;;;;3.38;0.82;;;;;;;;;;5029088;28;20364;-71
2023/04/13 10:14:07;;;;;;;1.10;0.60;;;;;;;;;;5029651;28;20374;-71
2023/04/13 10:16:39;;;;;;;2.38;0.70;;;;;;;;;;5029966;28;20075;-67
2023/04/13 10:19:05;;;;;;;4.88;0.80;;;;;;;;;;5028373;28;20451;-70
2023/04/13 10:21:34;;;;;;;3.20;0.82;;;;;;;;;;5037815;28;20477;-71
2023/04/13 10:24:00;;;;;;;4.90;1.20;;;;;;;;;;5039268;28;20265;-71
2023/04/13 10:26:32;;;;;;;1.85;0.90;;;;;;;;;;5029076;28;20018;-73
2023/04/13 10:28:58;;;;;;;3.70;1.42;;;;;;;;;;5029860;28;20029;-71
2023/04/13 10:31:36;;;;;;;2.65;1.02;;;;;;;;;;5028483;28;20025;-73
2023/04/13 10:34:05;;;;;;;3.85;1.05;;;;;;;;;;5028860;28;20053;-73
2023/04/13 10:36:38;;;;;;;4.22;1.33;;;;;;;;;;5028646;28;20053;-71
2023/04/13 10:39:03;;;;;;;4.32;1.10;;;;;;;;;;5042244;28;20433;-70
2023/04/13 10:41:29;;;;;;;4.70;1.02;;;;;;;;;;5041633;28;20056;-70
2023/04/13 10:44:03;;;;;;;4.55;1.38;;;;;;;;;;5028519;28;20474;-74
2023/04/13 10:46:29;;;;;;;5.68;1.17;;;;;;;;;;5028741;28;20030;-73
2023/04/13 10:48:57;;;;;;;8.38;1.05;;;;;;;;;;5029008;28;20092;-70
2023/04/13 10:51:22;;;;;;;1.52;0.73;;;;;;;;;;5010981;28;20022;-72
2023/04/13 10:53:48;;;;;;;3.60;1.10;;;;;;;;;;5046588;28;20096;-69
2023/04/13 10:56:18;;;;;;;2.20;0.93;;;;;;;;;;5031812;28;20024;-73
2023/04/13 10:58:50;;;;;;;1.25;0.73;;;;;;;;;;5048206;28;20041;-73
2023/04/13 11:01:18;;;;;;;3.65;1.20;;;;;;;;;;5030742;28;20021;-73
2023/04/13 11:03:43;;;;;;;4.60;1.20;;;;;;;;;;5047932;28;20511;-72
2023/04/13 11:06:09;;;;;;;3.30;0.90;;;;;;;;;;5048694;28;20107;-70
2023/04/13 11:08:38;;;;;;;1.50;0.68;;;;;;;;;;5033775;28;20454;-70
2023/04/13 11:11:03;;;;;;;6.72;0.93;;;;;;;;;;5034098;28;20021;-71
2023/04/13 11:13:29;;;;;;;2.72;0.90;;;;;;;;;;5051690;28;20552;-72
2023/04/13 11:16:01;;;;;;;2.47;0.90;;;;;;;;;;5052843;28;20163;-72
2023/04/13 11:18:27;;;;;;;6.63;1.15;;;;;;;;;;5052529;28;20020;-71
2023/04/13 11:20:52;;;;;;;4.28;1.13;;;;;;;;;;5061072;28;20021;-72
2023/04/13 11:23:18;;;;;;;3.50;0.88;;;;;;;;;;5066401;28;20070;-71
2023/04/13 11:25:53;;;;;;;14.20;1.00;;;;;;;;;;5051325;28;20035;-70
2023/04/13 11:28:20;;;;;;;3.58;1.05;;;;;;;;;;5052042;28;20378;-70
2023/04/13 11:30:55;;;;;;;7.20;1.00;;;;;;;;;;5051845;28;20267;-71
2023/04/13 11:33:26;;;;;;;2.33;0.98;;;;;;;;;;5051429;28;20017;-71
2023/04/13 11:35:55;;;;;;;4.38;0.75;;;;;;;;;;5051363;28;20478;-71
2023/04/13 11:38:21;;;;;;;2.10;0.80;;;;;;;;;;5059137;28;20032;-70
2023/04/13 11:40:47;;;;;;;5.57;0.93;;;;;;;;;;5070359;28;20025;-71
2023/04/13 11:43:13;;;;;;;4.28;1.10;;;;;;;;;;5051860;28;20025;-71
2023/04/13 11:45:40;;;;;;;4.10;0.88;;;;;;;;;;5051733;28;20466;-73
2023/04/13 11:48:07;;;;;;;4.22;0.90;;;;;;;;;;5034211;28;20335;-68
2023/04/13 11:50:32;;;;;;;6.63;1.42;;;;;;;;;;5050926;28;20025;-71
2023/04/13 11:52:58;;;;;;;8.40;1.90;;;;;;;;;;5051080;28;20391;-72
2023/04/13 11:55:24;;;;;;;9.93;1.00;;;;;;;;;;5050174;28;20059;-72
2023/04/13 11:57:50;;;;;;;3.65;1.20;;;;;;;;;;5051311;28;20017;-71
2023/04/13 12:00:23;;;;;;;6.90;1.10;;;;;;;;;;5051436;28;20017;-72
2023/04/13 12:02:50;;;;;;;3.33;0.70;;;;;;;;;;5051350;28;20025;-73
2023/04/13 12:05:25;;;;;;;7.15;1.52;;;;;;;;;;5050833;28;20029;-69
2023/04/13 12:07:52;;;;;;;7.05;2.17;;;;;;;;;;5051375;28;20490;-72
2023/04/13 12:10:21;;;;;;;8.32;0.98;;;;;;;;;;5032553;28;20036;-71
2023/04/13 12:12:54;;;;;;;4.22;0.90;;;;;;;;;;5050931;28;20068;-70
2023/04/13 12:15:22;;;;;;;1.40;0.70;;;;;;;;;;5050738;28;20049;-72
2023/04/13 12:17:51;;;;;;;5.03;1.20;;;;;;;;;;5051158;28;20390;-72
2023/04/13 12:20:17;;;;;;;5.25;1.30;;;;;;;;;;5050026;28;20247;-72
2023/04/13 12:22:42;;;;;;;8.40;1.08;;;;;;;;;;5067602;28;20477;-71
2023/04/13 12:25:13;;;;;;;10.82;1.25;;;;;;;;;;5051604;28;20032;-71
2023/04/13 12:27:39;;;;;;;2.70;0.80;;;;;;;;;;5051603;28;20182;-69
2023/04/13 12:30:05;;;;;;;2.33;0.90;;;;;;;;;;5051246;28;20473;-70
2023/04/13 12:32:30;;;;;;;4.00;1.02;;;;;;;;;;5032467;28;20028;-73
2023/04/13 12:34:56;;;;;;;1.85;0.90;;;;;;;;;;5050191;28;20385;-71
2023/04/13 12:37:21;;;;;;;4.57;1.92;;;;;;;;;;5032567;28;20427;-70
2023/04/13 12:39:46;;;;;;;3.55;1.27;;;;;;;;;;5050495;28;20170;-72
2023/04/13 12:42:12;;;;;;;14.30;1.25;;;;;;;;;;5052154;28;20450;-71
2023/04/13 12:44:37;;;;;;;5.22;1.30;;;;;;;;;;5050209;28;20036;-71
2023/04/13 12:47:02;;;;;;;2.75;0.80;;;;;;;;;;5049925;28;20033;-71
2023/04/13 12:49:28;;;;;;;4.32;0.82;;;;;;;;;;5050382;28;20438;-70
2023/04/13 12:51:54;;;;;;;5.45;1.15;;;;;;;;;;5050757;28;20490;-71
2023/04/13 12:54:19;;;;;;;2.63;1.00;;;;;;;;;;5050638;28;20017;-73
2023/04/13 12:56:44;;;;;;;3.55;0.68;;;;;;;;;;5050489;28;20100;-70
2023/04/13 12:59:10;;;;;;;2.70;0.80;;;;;;;;;;5049965;28;20103;-72
2023/04/13 13:01:36;;;;;;;4.18;0.98;;;;;;;;;;5050108;28;20184;-71
2023/04/13 13:04:04;;;;;;;8.73;1.02;;;;;;;;;;5049374;28;20447;-70
2023/04/13 13:06:30;;;;;;;3.90;0.73;;;;;;;;;;5050177;28;20551;-71
2023/04/13 13:08:55;;;;;;;1.95;0.88;;;;;;;;;;5050851;28;20037;-73
2023/04/13 13:11:20;;;;;;;4.32;0.80;;;;;;;;;;5050558;28;20120;-71
2023/04/13 13:13:45;;;;;;;6.63;0.98;;;;;;;;;;5049842;28;20020;-72
2023/04/13 13:16:11;;;;;;;4.35;0.90;;;;;;;;;;5050386;28;20017;-72
2023/04/13 13:18:36;;;;;;;6.82;1.10;;;;;;;;;;5050417;28;20522;-72
2023/04/13 13:21:01;;;;;;;3.90;0.85;;;;;;;;;;5041768;28;20027;-71
2023/04/13 13:23:26;;;;;;;3.25;0.75;;;;;;;;;;5064399;28;20086;-70
2023/04/13 13:25:52;;;;;;;1.75;0.77;;;;;;;;;;5049564;28;20025;-72
2023/04/13 13:28:17;;;;;;;4.50;1.20;;;;;;;;;;5049562;28;20047;-69
2023/04/13 13:30:42;;;;;;;4.40;1.05;;;;;;;;;;5049480;28;20032;-70
2023/04/13 13:33:07;;;;;;;3.75;1.00;;;;;;;;;;5050123;28;20032;-71
2023/04/13 13:35:33;;;;;;;4.65;0.95;;;;;;;;;;5049567;28;20096;-73
2023/04/13 13:37:58;;;;;;;2.83;1.02;;;;;;;;;;5054353;28;20018;-73
2023/04/13 13:40:24;;;;;;;3.40;1.02;;;;;;;;;;5069797;28;20078;-72
2023/04/13 13:42:50;;;;;;;0.75;0.50;;;;;;;;;;5051150;28;20024;-72
2023/04/13 13:45:18;;;;;;;2.38;0.80;;;;;;;;;;5049749;28;20053;-72
2023/04/13 13:47:45;;;;;;;2.53;1.10;;;;;;;;;;5049524;28;20053;-72
2023/04/13 13:50:10;;;;;;;3.55;1.08;;;;;;;;;;5049814;28;20102;-72
2023/04/13 13:52:35;;;;;;;1.90;0.70;;;;;;;;;;5049738;28;20116;-72
2023/04/13 13:55:01;;;;;;;5.68;0.95;;;;;;;;;;5031152;28;20033;-73
2023/04/13 13:57:26;;;;;;;5.65;0.90;;;;;;;;;;5049372;28;20024;-70
2023/04/13 13:59:51;;;;;;;7.03;1.15;;;;;;;;;;5048906;28;20305;-71
2023/04/13 14:02:17;;;;;;;3.22;1.38;;;;;;;;;;5048658;28;20025;-71
2023/04/13 14:04:42;;;;;;;2.17;0.77;;;;;;;;;;5048901;28;20378;-71
2023/04/13 14:07:08;;;;;;;2.75;1.02;;;;;;;;;;5048786;28;20032;-71
2023/04/13 14:09:33;;;;;;;3.90;0.90;;;;;;;;;;5049252;28;20016;-69
2023/04/13 14:11:59;;;;;;;2.90;0.95;;;;;;;;;;5049690;28;20589;-70
2023/04/13 14:14:24;;;;;;;5.97;1.30;;;;;;;;;;5049870;28;20021;-71
2023/04/13 14:16:49;;;;;;;2.92;0.95;;;;;;;;;;5049444;28;20040;-72
2023/04/13 14:19:16;;;;;;;5.28;0.80;;;;;;;;;;5049250;28;20388;-71
2023/04/13 14:21:42;;;;;;;5.18;1.35;;;;;;;;;;5057559;28;20490;-72
2023/04/13 14:24:07;;;;;;;4.70;0.80;;;;;;;;;;5057844;28;20023;-72
2023/04/13 14:26:35;;;;;;;2.85;1.15;;;;;;;;;;5049066;28;20518;-71
2023/04/13 14:29:00;;;;;;;1.80;0.90;;;;;;;;;;5042432;28;20024;-70
2023/04/13 14:31:26;;;;;;;1.27;0.70;;;;;;;;;;5051142;28;20604;-70
2023/04/13 14:33:51;;;;;;;3.70;1.10;;;;;;;;;;5048581;28;20451;-70
2023/04/13 14:36:18;;;;;;;5.07;1.27;;;;;;;;;;5048567;28;20040;-73
2023/04/13 14:38:43;;;;;;;3.90;0.93;;;;;;;;;;5060482;28;20044;-70